Time;durP1;ratioP1;P1;durP2;ratioP2;P2;SDS_P1;SDS_P2;PMS_P1;PMS_P2;Temp;Humidity;BMP_temperature;BMP_pressure;BME280_temperature;BME280_humidity;BME280_pressure;Samples;Min_cycle;Max_cycle;Signal;HPM_P1;HPM_P2
2022/06/29 00:00:17;;;;;;;0.30;0.30;;;21.80;53.60;;;;;;5059473;28;20025;-93
2022/06/29 00:02:43;;;;;;;0.73;0.73;;;21.80;53.70;;;;;;5036934;28;20037;-93
2022/06/29 00:05:11;;;;;;;0.43;0.43;;;21.80;53.70;;;;;;5036379;28;20028;-93
2022/06/29 00:07:37;;;;;;;0.50;0.50;;;21.70;53.60;;;;;;5035009;28;20041;-92
2022/06/29 00:10:04;;;;;;;0.30;0.30;;;21.80;53.70;;;;;;5035355;28;20052;-93
2022/06/29 00:12:30;;;;;;;0.20;0.20;;;21.80;53.70;;;;;;5020081;28;20037;-92
2022/06/29 00:14:55;;;;;;;0.57;0.50;;;21.70;53.70;;;;;;5037260;28;20028;-92
2022/06/29 00:17:22;;;;;;;0.30;0.30;;;21.70;53.80;;;;;;5015976;28;20450;-92
2022/06/29 00:19:48;;;;;;;2.35;0.60;;;21.70;53.90;;;;;;5048523;28;20060;-92
2022/06/29 00:22:15;;;;;;;0.50;0.40;;;21.70;54.00;;;;;;5036123;28;20010;-93
2022/06/29 00:24:41;;;;;;;0.90;0.50;;;21.70;54.10;;;;;;5026208;28;20373;-91
2022/06/29 00:27:08;;;;;;;0.32;0.32;;;21.70;54.10;;;;;;5040381;28;20045;-91
2022/06/29 00:29:34;;;;;;;0.50;0.50;;;21.60;54.10;;;;;;5037788;28;20111;-90
2022/06/29 00:32:00;;;;;;;1.63;0.82;;;21.60;54.20;;;;;;5005102;28;20021;-91
2022/06/29 00:34:26;;;;;;;0.77;0.60;;;21.60;54.80;;;;;;5020693;28;20040;-91
2022/06/29 00:37:03;;;;;;;0.80;0.47;;;21.60;54.30;;;;;;5055812;28;20029;-93
2022/06/29 00:39:38;;;;;;;0.40;0.40;;;21.60;54.30;;;;;;5021671;28;20025;-93
2022/06/29 00:42:04;;;;;;;0.40;0.40;;;21.50;54.30;;;;;;5040010;28;20033;-91
2022/06/29 00:44:30;;;;;;;0.47;0.47;;;21.50;54.30;;;;;;5024089;28;20028;-91
2022/06/29 00:46:58;;;;;;;3.83;0.40;;;21.50;54.40;;;;;;5020905;28;20072;-92
2022/06/29 00:49:27;;;;;;;0.40;0.40;;;21.50;54.60;;;;;;5030419;28;20393;-92
2022/06/29 00:52:05;;;;;;;2.55;0.82;;;21.40;54.70;;;;;;5038587;28;20118;-92
2022/06/29 00:54:45;;;;;;;0.55;0.40;;;21.40;54.80;;;;;;5050020;28;20174;-92
2022/06/29 00:57:16;;;;;;;0.50;0.50;;;21.40;54.90;;;;;;5037910;28;20193;-91
2022/06/29 00:59:50;;;;;;;0.40;0.40;;;21.30;55.00;;;;;;5055480;28;20025;-91
2022/06/29 01:02:22;;;;;;;0.85;0.50;;;21.30;55.00;;;;;;5040603;28;20020;-91
2022/06/29 01:04:49;;;;;;;1.00;0.60;;;21.30;55.10;;;;;;5036869;28;20024;-92
2022/06/29 01:07:17;;;;;;;0.55;0.52;;;21.30;55.20;;;;;;5001376;28;20025;-92
2022/06/29 01:09:44;;;;;;;1.17;0.93;;;21.20;55.20;;;;;;5016819;28;20037;-92
2022/06/29 01:12:11;;;;;;;0.43;0.43;;;21.20;55.40;;;;;;5021016;28;20028;-91
2022/06/29 01:14:36;;;;;;;0.85;0.55;;;21.20;55.40;;;;;;5037575;28;20041;-83
2022/06/29 01:17:03;;;;;;;0.77;0.70;;;21.10;55.40;;;;;;5036096;28;20025;-83
2022/06/29 01:19:32;;;;;;;0.40;0.40;;;21.10;55.40;;;;;;5019375;28;20029;-82
2022/06/29 01:22:27;;;;;;;0.50;0.50;;;21.10;55.50;;;;;;5012935;28;20026;-85
2022/06/29 01:25:03;;;;;;;0.88;0.70;;;21.10;55.50;;;;;;5061309;28;20039;-84
2022/06/29 01:27:29;;;;;;;0.60;0.60;;;21.00;55.60;;;;;;5034609;28;20045;-84
2022/06/29 01:29:55;;;;;;;0.47;0.43;;;21.00;55.80;;;;;;5008439;28;20056;-83
2022/06/29 01:32:21;;;;;;;0.63;0.63;;;21.00;55.90;;;;;;5038833;28;20044;-84
2022/06/29 01:34:48;;;;;;;1.00;0.52;;;20.90;56.00;;;;;;5035417;28;20044;-91
2022/06/29 01:37:14;;;;;;;1.85;0.82;;;20.90;56.10;;;;;;5018775;28;20029;-92
2022/06/29 01:39:40;;;;;;;0.50;0.50;;;20.90;56.20;;;;;;5005434;28;20539;-92
2022/06/29 01:42:07;;;;;;;0.75;0.70;;;20.80;56.20;;;;;;5011735;28;20103;-91
2022/06/29 01:44:34;;;;;;;3.83;0.68;;;20.80;56.30;;;;;;5042232;28;20037;-91
2022/06/29 01:47:01;;;;;;;0.75;0.75;;;20.80;56.40;;;;;;5037238;28;20167;-93
2022/06/29 01:49:27;;;;;;;0.40;0.40;;;20.80;56.60;;;;;;5020975;28;20037;-93
2022/06/29 01:51:57;;;;;;;0.60;0.60;;;20.70;56.60;;;;;;5023327;28;20053;-91
2022/06/29 01:54:22;;;;;;;0.75;0.75;;;20.70;56.50;;;;;;5031324;28;20112;-85
2022/06/29 01:56:48;;;;;;;0.55;0.55;;;20.70;56.60;;;;;;5018227;28;20630;-84
2022/06/29 01:59:14;;;;;;;1.95;0.60;;;20.70;56.60;;;;;;5042714;28;20102;-84
2022/06/29 02:01:40;;;;;;;0.85;0.68;;;20.70;56.70;;;;;;5018679;28;20499;-85
2022/06/29 02:04:06;;;;;;;0.60;0.60;;;20.70;56.80;;;;;;5036872;28;20025;-83
2022/06/29 02:06:32;;;;;;;0.73;0.60;;;20.60;56.80;;;;;;5040665;28;20028;-84
2022/06/29 02:08:58;;;;;;;2.75;1.30;;;20.60;56.80;;;;;;5021352;28;20025;-84
2022/06/29 02:11:24;;;;;;;1.48;0.70;;;20.60;57.10;;;;;;5002507;28;20578;-83
2022/06/29 02:13:51;;;;;;;0.40;0.40;;;20.60;57.30;;;;;;5026370;28;20117;-83
2022/06/29 02:16:16;;;;;;;0.82;0.80;;;20.50;57.30;;;;;;5001191;28;20037;-84
2022/06/29 02:18:43;;;;;;;0.60;0.60;;;20.50;57.40;;;;;;5018943;28;20021;-91
2022/06/29 02:21:09;;;;;;;0.60;0.60;;;20.40;57.40;;;;;;5017182;28;20033;-85
2022/06/29 02:23:35;;;;;;;0.73;0.40;;;20.40;57.70;;;;;;5016390;28;20035;-92
2022/06/29 02:26:01;;;;;;;0.68;0.68;;;20.40;57.70;;;;;;5033803;28;20053;-92
2022/06/29 02:28:27;;;;;;;0.60;0.60;;;20.40;57.80;;;;;;5019110;28;20033;-92
2022/06/29 02:36:28;;;;;;;0.55;0.55;;;20.30;58.20;;;;;;5023958;28;20051;-91
2022/06/29 02:38:53;;;;;;;;;;;20.30;58.30;;;;;;5019065;28;20048;-84
2022/06/29 02:41:19;;;;;;;0.65;0.47;;;20.20;58.50;;;;;;5046759;28;20360;-84
2022/06/29 02:43:45;;;;;;;1.58;0.70;;;20.20;58.70;;;;;;5016584;28;20527;-85
2022/06/29 02:46:11;;;;;;;0.60;0.60;;;20.10;58.90;;;;;;5017612;28;20032;-85
2022/06/29 02:48:37;;;;;;;0.70;0.70;;;20.10;59.20;;;;;;5019001;28;20033;-84
2022/06/29 02:51:03;;;;;;;0.50;0.50;;;20.10;59.20;;;;;;5016995;28;20052;-84
2022/06/29 02:53:28;;;;;;;2.15;1.13;;;20.00;59.40;;;;;;5025648;28;20032;-84
2022/06/29 02:55:54;;;;;;;0.70;0.70;;;20.00;59.50;;;;;;5051417;28;20033;-85
2022/06/29 02:58:20;;;;;;;0.60;0.60;;;19.90;59.70;;;;;;5035413;28;20039;-92
2022/06/29 03:00:46;;;;;;;0.70;0.70;;;19.90;59.90;;;;;;5011608;28;20626;-85
2022/06/29 03:03:11;;;;;;;0.70;0.70;;;19.80;59.90;;;;;;5014113;28;20033;-84
2022/06/29 03:05:37;;;;;;;0.68;0.68;;;19.80;60.00;;;;;;5017152;28;20652;-84
2022/06/29 03:08:03;;;;;;;1.60;0.90;;;19.80;60.10;;;;;;5012988;28;20029;-84
2022/06/29 03:10:28;;;;;;;1.15;0.77;;;19.80;60.20;;;;;;5053271;28;20407;-85
2022/06/29 03:12:54;;;;;;;0.90;0.90;;;19.70;60.30;;;;;;4992576;28;20120;-83
2022/06/29 03:15:20;;;;;;;0.80;0.80;;;19.60;60.40;;;;;;5015064;28;20039;-83
2022/06/29 03:17:46;;;;;;;1.00;0.85;;;19.60;60.60;;;;;;4995845;28;20045;-84
2022/06/29 03:20:13;;;;;;;0.40;0.40;;;19.60;60.90;;;;;;5014453;28;20271;-85
2022/06/29 03:22:38;;;;;;;0.70;0.70;;;19.50;61.00;;;;;;5017000;28;20036;-84
2022/06/29 03:25:05;;;;;;;1.70;0.90;;;19.50;61.20;;;;;;5015477;28;20021;-83
2022/06/29 03:27:32;;;;;;;1.85;0.75;;;19.50;61.40;;;;;;5016420;28;20045;-84
2022/06/29 03:29:58;;;;;;;1.30;0.85;;;19.40;61.50;;;;;;5017161;28;20098;-92
2022/06/29 03:32:23;;;;;;;0.85;0.85;;;19.40;61.50;;;;;;5017384;28;20040;-91
2022/06/29 03:34:49;;;;;;;0.60;0.60;;;19.40;61.70;;;;;;5012411;28;20026;-92
2022/06/29 03:37:15;;;;;;;0.90;0.90;;;19.40;61.70;;;;;;5007429;28;20033;-92
2022/06/29 03:39:42;;;;;;;0.60;0.60;;;19.40;61.70;;;;;;5017932;28;20052;-91
2022/06/29 03:42:07;;;;;;;0.70;0.70;;;19.30;61.70;;;;;;5035124;28;20044;-92
2022/06/29 03:44:33;;;;;;;0.68;0.68;;;19.30;61.80;;;;;;5018345;28;20032;-91
2022/06/29 03:46:59;;;;;;;3.80;0.82;;;19.30;61.90;;;;;;5001082;28;20410;-84
2022/06/29 03:49:24;;;;;;;0.85;0.65;;;19.30;62.00;;;;;;5016303;28;20036;-91
2022/06/29 03:51:50;;;;;;;0.60;0.60;;;19.30;62.10;;;;;;5018110;28;20036;-91
2022/06/29 03:54:16;;;;;;;1.55;0.80;;;19.30;62.10;;;;;;5015301;28;20182;-91
2022/06/29 03:56:41;;;;;;;0.80;0.80;;;19.30;62.20;;;;;;5017625;28;20037;-92
2022/06/29 03:59:07;;;;;;;0.73;0.60;;;19.30;62.10;;;;;;5019388;28;20024;-92
2022/06/29 04:01:33;;;;;;;2.10;1.15;;;19.30;62.40;;;;;;5000819;28;20034;-91
2022/06/29 04:03:58;;;;;;;0.80;0.80;;;19.30;62.50;;;;;;4998259;28;20110;-92
2022/06/29 04:06:24;;;;;;;0.90;0.90;;;19.30;62.50;;;;;;5017877;28;20399;-92
2022/06/29 04:08:50;;;;;;;0.93;0.85;;;19.30;62.60;;;;;;5017598;28;20033;-92
2022/06/29 04:14:00;;;;;;;1.58;1.10;;;19.40;62.50;;;;;;5029934;28;20340;-91
2022/06/29 04:16:26;;;;;;;0.70;0.70;;;19.40;62.40;;;;;;5012074;28;20124;-92
2022/06/29 04:18:51;;;;;;;1.80;1.30;;;19.40;62.40;;;;;;5034418;28;20060;-91
2022/06/29 04:21:17;;;;;;;1.15;1.00;;;19.40;62.40;;;;;;5008153;28;20135;-92
2022/06/29 04:23:43;;;;;;;1.52;1.00;;;19.40;62.50;;;;;;5019545;28;20048;-92
2022/06/29 04:26:08;;;;;;;1.27;1.05;;;19.50;62.60;;;;;;5017419;28;20118;-92
2022/06/29 04:28:34;;;;;;;1.30;0.80;;;19.50;62.60;;;;;;4997817;28;20030;-92
2022/06/29 04:31:01;;;;;;;0.88;0.88;;;19.60;62.40;;;;;;5017250;28;20295;-92
2022/06/29 04:33:26;;;;;;;0.85;0.75;;;19.60;62.40;;;;;;5021251;28;20041;-84
2022/06/29 04:35:52;;;;;;;1.00;0.80;;;19.70;62.50;;;;;;5012100;28;20116;-85
2022/06/29 04:38:18;;;;;;;0.80;0.75;;;19.80;62.50;;;;;;5015165;28;20069;-83
2022/06/29 04:40:43;;;;;;;0.77;0.77;;;19.80;62.40;;;;;;4992924;28;20018;-83
2022/06/29 04:43:09;;;;;;;0.70;0.70;;;19.80;62.20;;;;;;4998589;28;20067;-84
2022/06/29 04:48:19;;;;;;;0.98;0.80;;;19.90;62.00;;;;;;5035089;28;20040;-84
2022/06/29 04:50:45;;;;;;;0.75;0.75;;;20.00;62.00;;;;;;5015062;28;20384;-84
2022/06/29 04:53:11;;;;;;;1.00;0.90;;;20.00;61.90;;;;;;5012219;28;20024;-84
2022/06/29 04:55:36;;;;;;;2.28;1.02;;;20.10;61.70;;;;;;4987490;28;20033;-85
2022/06/29 04:58:02;;;;;;;1.15;0.70;;;20.10;61.70;;;;;;4996202;28;20642;-84
2022/06/29 05:00:28;;;;;;;0.75;0.75;;;20.20;61.70;;;;;;5008502;28;20082;-85
2022/06/29 05:02:54;;;;;;;1.52;1.00;;;20.20;61.60;;;;;;5008646;28;20026;-84
2022/06/29 05:05:19;;;;;;;0.65;0.65;;;20.30;61.50;;;;;;4996306;28;20549;-85
2022/06/29 05:07:48;;;;;;;1.42;1.33;;;20.30;61.30;;;;;;5008077;28;20147;-84
2022/06/29 05:10:14;;;;;;;1.02;0.73;;;20.40;61.20;;;;;;5021851;28;20030;-84
2022/06/29 05:12:40;;;;;;;1.00;0.70;;;20.40;61.10;;;;;;4999199;28;20025;-84
2022/06/29 05:15:07;;;;;;;0.63;0.63;;;20.50;61.20;;;;;;5006876;28;20632;-84
2022/06/29 05:17:36;;;;;;;0.80;0.80;;;20.50;61.00;;;;;;5010892;28;20411;-85
2022/06/29 05:20:08;;;;;;;1.75;1.00;;;20.60;60.90;;;;;;5000085;28;20152;-84
2022/06/29 05:22:35;;;;;;;1.58;0.95;;;20.60;60.90;;;;;;5017296;28;20447;-84
2022/06/29 05:25:01;;;;;;;1.52;1.13;;;20.60;60.90;;;;;;5026114;28;20149;-84
2022/06/29 05:27:27;;;;;;;1.10;0.70;;;20.70;60.90;;;;;;5006766;28;20045;-85
2022/06/29 05:29:53;;;;;;;2.47;1.00;;;20.70;60.80;;;;;;4993393;28;20030;-85
2022/06/29 05:32:18;;;;;;;1.02;0.90;;;20.70;60.60;;;;;;5006256;28;20051;-85
2022/06/29 05:34:44;;;;;;;0.90;0.75;;;20.80;60.50;;;;;;5003768;28;20060;-85
2022/06/29 05:37:10;;;;;;;0.88;0.80;;;20.80;60.40;;;;;;5013072;28;20480;-86
2022/06/29 05:39:35;;;;;;;0.77;0.77;;;20.90;60.40;;;;;;5007907;28;20176;-84
2022/06/29 05:42:01;;;;;;;1.83;1.17;;;20.90;60.40;;;;;;5005913;28;20029;-85
2022/06/29 05:44:27;;;;;;;0.95;0.80;;;21.00;60.30;;;;;;5004307;28;20128;-84
2022/06/29 05:46:52;;;;;;;0.90;0.90;;;21.00;60.10;;;;;;5008159;28;20101;-86
2022/06/29 05:49:18;;;;;;;1.08;0.98;;;21.00;60.00;;;;;;5022865;28;20064;-85
2022/06/29 05:51:44;;;;;;;0.52;0.52;;;21.10;60.00;;;;;;5015132;28;20053;-84
2022/06/29 05:54:09;;;;;;;0.88;0.88;;;21.10;60.00;;;;;;5004225;28;20045;-85
2022/06/29 05:56:35;;;;;;;0.93;0.70;;;21.20;60.00;;;;;;5014442;28;20032;-85
2022/06/29 05:59:00;;;;;;;0.68;0.68;;;21.20;60.00;;;;;;4997114;28;20037;-84
2022/06/29 06:01:26;;;;;;;0.63;0.60;;;21.30;59.80;;;;;;5007106;28;20110;-84
2022/06/29 06:03:52;;;;;;;0.70;0.70;;;21.30;59.70;;;;;;5008279;28;20017;-85
2022/06/29 06:06:17;;;;;;;0.73;0.73;;;21.40;59.50;;;;;;5011394;28;20033;-92
2022/06/29 06:08:43;;;;;;;1.30;0.82;;;21.50;59.50;;;;;;5002254;28;20032;-93
2022/06/29 06:11:08;;;;;;;0.95;0.90;;;21.50;59.30;;;;;;5022770;28;20095;-84
2022/06/29 06:13:34;;;;;;;0.70;0.70;;;21.60;59.20;;;;;;5017199;28;20041;-85
2022/06/29 06:16:00;;;;;;;0.80;0.80;;;21.60;59.20;;;;;;4999777;28;20107;-85
2022/06/29 06:18:25;;;;;;;0.77;0.77;;;21.70;59.80;;;;;;5027209;28;20481;-84
2022/06/29 06:20:51;;;;;;;0.85;0.50;;;21.80;59.10;;;;;;4989461;28;20121;-85
2022/06/29 06:23:17;;;;;;;1.77;0.98;;;21.90;59.00;;;;;;5021756;28;20032;-84
2022/06/29 06:25:42;;;;;;;0.80;0.80;;;21.90;58.80;;;;;;5014469;28;20045;-85
2022/06/29 06:28:08;;;;;;;1.88;1.00;;;22.00;58.70;;;;;;5015271;28;20031;-85
2022/06/29 06:30:34;;;;;;;0.73;0.73;;;22.00;58.50;;;;;;4997808;28;20123;-84
2022/06/29 06:33:00;;;;;;;1.05;1.00;;;22.00;58.40;;;;;;5034320;28;20029;-84
2022/06/29 06:35:26;;;;;;;0.95;0.70;;;22.10;58.40;;;;;;5004618;28;20537;-84
2022/06/29 06:37:52;;;;;;;0.90;0.90;;;22.20;58.30;;;;;;5019070;28;20029;-92
2022/06/29 06:43:02;;;;;;;0.95;0.60;;;22.30;58.20;;;;;;5053052;28;20036;-85
2022/06/29 06:45:28;;;;;;;0.50;0.50;;;22.40;58.10;;;;;;4998684;28;20030;-84
2022/06/29 06:47:54;;;;;;;1.63;1.05;;;22.40;58.00;;;;;;5034650;28;20753;-85
2022/06/29 06:50:20;;;;;;;0.77;0.77;;;22.50;58.00;;;;;;5018308;28;20437;-85
2022/06/29 06:52:45;;;;;;;0.65;0.65;;;22.50;57.80;;;;;;5001738;28;20117;-85
2022/06/29 06:55:13;;;;;;;1.05;0.80;;;22.60;57.70;;;;;;5014522;28;20033;-85
2022/06/29 06:57:39;;;;;;;0.88;0.88;;;22.70;57.60;;;;;;5001657;28;20433;-85
2022/06/29 07:00:05;;;;;;;1.02;0.80;;;22.80;57.50;;;;;;5054062;28;20032;-85
2022/06/29 07:02:31;;;;;;;0.57;0.57;;;22.80;57.50;;;;;;5041653;28;20075;-85
2022/06/29 07:04:57;;;;;;;0.70;0.70;;;22.80;57.60;;;;;;5031113;28;20549;-85
2022/06/29 07:07:22;;;;;;;1.02;0.93;;;22.80;57.60;;;;;;5015406;28;20503;-86
2022/06/29 07:09:48;;;;;;;0.60;0.60;;;22.70;57.70;;;;;;5036991;28;20025;-85
2022/06/29 07:12:14;;;;;;;0.68;0.65;;;22.70;57.80;;;;;;5052366;28;20021;-85
2022/06/29 07:14:39;;;;;;;0.50;0.50;;;22.60;57.90;;;;;;5024365;28;20112;-85
2022/06/29 07:17:05;;;;;;;1.00;0.73;;;22.50;58.10;;;;;;5020999;28;20112;-85
2022/06/29 07:19:31;;;;;;;1.02;0.63;;;22.50;58.30;;;;;;5017597;28;21703;-85
2022/06/29 07:21:57;;;;;;;0.70;0.70;;;22.40;58.50;;;;;;4993081;28;20033;-85
2022/06/29 07:24:22;;;;;;;0.73;0.60;;;22.40;58.70;;;;;;4996506;28;20120;-85
2022/06/29 07:26:48;;;;;;;0.65;0.65;;;22.40;58.90;;;;;;5023177;28;20044;-85
2022/06/29 07:29:14;;;;;;;0.65;0.60;;;22.30;59.00;;;;;;5006369;28;20025;-83
2022/06/29 07:31:39;;;;;;;0.70;0.70;;;22.30;59.20;;;;;;5014620;28;20507;-85
2022/06/29 07:34:05;;;;;;;1.33;0.73;;;22.30;59.40;;;;;;4988562;28;20116;-84
2022/06/29 07:36:31;;;;;;;0.77;0.77;;;22.50;59.40;;;;;;5014378;28;20045;-85
2022/06/29 07:38:57;;;;;;;0.88;0.88;;;22.60;59.30;;;;;;5016764;28;20407;-86
2022/06/29 07:41:23;;;;;;;2.88;0.88;;;22.70;59.10;;;;;;5038817;28;20033;-84
2022/06/29 07:43:48;;;;;;;0.80;0.80;;;22.90;58.80;;;;;;5026336;28;20040;-89
2022/06/29 07:46:14;;;;;;;2.22;0.75;;;23.00;58.50;;;;;;5011301;28;20356;-85
2022/06/29 07:48:40;;;;;;;1.58;1.30;;;23.10;58.40;;;;;;5016198;28;20022;-86
2022/06/29 07:51:05;;;;;;;0.70;0.70;;;23.30;58.10;;;;;;5034372;28;20495;-85
2022/06/29 07:53:31;;;;;;;0.70;0.70;;;23.50;57.80;;;;;;5000698;28;20040;-85
2022/06/29 07:55:57;;;;;;;1.30;0.82;;;23.60;57.70;;;;;;5010932;28;20090;-85
2022/06/29 07:58:23;;;;;;;0.70;0.70;;;23.70;57.50;;;;;;5018854;28;20043;-85
2022/06/29 08:00:49;;;;;;;1.00;1.00;;;23.80;57.10;;;;;;5031563;28;20068;-85
2022/06/29 08:03:14;;;;;;;0.82;0.82;;;23.90;56.90;;;;;;5007598;28;20040;-85
2022/06/29 08:05:40;;;;;;;0.93;0.93;;;24.00;56.70;;;;;;5015599;28;20431;-86
2022/06/29 08:08:06;;;;;;;1.05;0.80;;;24.10;56.10;;;;;;5011687;28;20138;-86
2022/06/29 08:10:33;;;;;;;1.02;1.00;;;24.20;56.00;;;;;;5029222;28;20396;-85
2022/06/29 08:12:59;;;;;;;0.55;0.55;;;24.30;56.00;;;;;;5030679;28;20025;-85
2022/06/29 08:15:25;;;;;;;2.60;0.90;;;24.40;56.00;;;;;;5027897;28;20052;-86
2022/06/29 08:17:52;;;;;;;0.93;0.80;;;24.50;55.90;;;;;;5028439;28;20044;-86
2022/06/29 08:20:19;;;;;;;1.63;0.75;;;24.70;55.70;;;;;;5012629;28;20060;-87
2022/06/29 08:22:45;;;;;;;0.70;0.70;;;24.70;54.70;;;;;;5027920;28;20019;-85
2022/06/29 08:25:11;;;;;;;0.70;0.70;;;24.90;54.80;;;;;;5025238;28;20048;-85
2022/06/29 08:27:40;;;;;;;0.63;0.60;;;25.00;54.70;;;;;;4998985;28;20052;-86
2022/06/29 08:30:08;;;;;;;2.35;0.60;;;25.10;54.10;;;;;;5010840;28;20565;-85
2022/06/29 08:32:34;;;;;;;1.65;0.82;;;25.10;54.20;;;;;;5039605;28;20032;-86
2022/06/29 08:35:01;;;;;;;0.55;0.55;;;25.10;54.20;;;;;;5023774;28;20029;-86
2022/06/29 08:37:30;;;;;;;1.45;0.80;;;25.20;53.70;;;;;;5027864;28;20080;-86
2022/06/29 08:39:56;;;;;;;1.05;0.93;;;25.20;53.90;;;;;;5021738;28;20033;-86
2022/06/29 08:42:23;;;;;;;0.90;0.77;;;25.20;53.90;;;;;;5008384;28;20052;-85
2022/06/29 08:44:49;;;;;;;0.70;0.70;;;25.20;54.20;;;;;;5003911;28;20048;-86
2022/06/29 08:47:16;;;;;;;0.50;0.50;;;25.30;54.30;;;;;;4996966;28;20025;-85
2022/06/29 08:49:44;;;;;;;1.10;1.00;;;25.30;54.30;;;;;;5011811;28;20036;-86
2022/06/29 08:52:11;;;;;;;0.70;0.70;;;25.40;54.30;;;;;;5028570;28;20061;-86
2022/06/29 08:54:41;;;;;;;0.80;0.80;;;25.50;54.30;;;;;;5028409;28;20115;-86
2022/06/29 08:57:08;;;;;;;0.70;0.70;;;25.70;54.20;;;;;;5032193;28;20044;-87
2022/06/29 08:59:37;;;;;;;0.70;0.70;;;25.80;54.10;;;;;;5034289;28;20029;-86
2022/06/29 09:02:04;;;;;;;2.00;0.95;;;25.90;54.00;;;;;;5016368;28;20036;-86
2022/06/29 09:04:30;;;;;;;1.00;0.77;;;26.10;53.90;;;;;;5014833;28;20025;-87
2022/06/29 09:06:56;;;;;;;0.63;0.63;;;26.20;53.70;;;;;;5015739;28;20083;-86
2022/06/29 09:09:23;;;;;;;0.90;0.80;;;26.30;53.40;;;;;;4999168;28;20098;-85
2022/06/29 09:11:53;;;;;;;1.38;0.80;;;26.40;53.10;;;;;;5035855;28;20029;-86
2022/06/29 09:14:23;;;;;;;0.60;0.60;;;26.50;53.00;;;;;;5032492;28;20061;-88
2022/06/29 09:16:49;;;;;;;1.45;0.80;;;26.60;53.00;;;;;;5036006;28;20033;-86
2022/06/29 09:19:15;;;;;;;0.70;0.70;;;26.70;53.40;;;;;;5035570;28;20399;-86
2022/06/29 09:21:52;;;;;;;0.70;0.60;;;26.80;52.20;;;;;;5041740;28;20043;-86
2022/06/29 09:24:21;;;;;;;0.68;0.50;;;26.80;52.10;;;;;;5055332;28;20024;-85
2022/06/29 09:26:59;;;;;;;0.85;0.63;;;26.90;51.80;;;;;;5048266;28;20087;-86
2022/06/29 09:29:26;;;;;;;0.50;0.50;;;27.00;51.50;;;;;;5035194;28;20103;-84
2022/06/29 09:32:07;;;;;;;0.50;0.50;;;27.20;51.20;;;;;;5035135;28;20143;-86
2022/06/29 09:34:36;;;;;;;0.65;0.65;;;27.20;50.40;;;;;;5035618;28;20033;-85
2022/06/29 09:37:04;;;;;;;0.60;0.60;;;27.30;50.20;;;;;;5031614;28;20087;-86
2022/06/29 09:39:38;;;;;;;0.80;0.80;;;27.40;49.90;;;;;;5034448;28;20124;-87
2022/06/29 09:42:09;;;;;;;0.65;0.65;;;27.50;50.50;;;;;;5041596;28;20056;-91
2022/06/29 09:44:35;;;;;;;0.57;0.40;;;27.70;49.60;;;;;;5040496;28;20040;-87
2022/06/29 09:47:08;;;;;;;0.50;0.50;;;27.90;49.60;;;;;;5033579;28;20020;-88
2022/06/29 09:49:39;;;;;;;0.60;0.60;;;28.00;49.40;;;;;;5033858;28;20021;-86
2022/06/29 09:52:06;;;;;;;1.65;0.73;;;28.10;49.20;;;;;;5034134;28;20036;-87
2022/06/29 09:54:36;;;;;;;0.50;0.50;;;28.20;48.50;;;;;;5025990;28;20033;-86
2022/06/29 09:57:03;;;;;;;0.60;0.60;;;28.30;48.30;;;;;;5053076;28;20425;-86
2022/06/29 10:02:42;;;;;;;0.75;0.60;;;28.50;47.30;;;;;;5052367;28;20078;-86
2022/06/29 10:05:13;;;;;;;0.68;0.68;;;28.50;46.30;;;;;;5026430;28;20107;-86
2022/06/29 10:07:44;;;;;;;0.50;0.50;;;28.60;46.80;;;;;;5047193;28;20530;-86
2022/06/29 10:10:13;;;;;;;0.60;0.60;;;28.80;46.70;;;;;;4998930;28;20369;-86
2022/06/29 10:15:57;;;;;;;0.50;0.50;;;29.00;45.40;;;;;;5054120;28;20511;-93
2022/06/29 10:18:58;;;;;;;0.60;0.60;;;28.90;45.00;;;;;;5036625;28;20024;-91
2022/06/29 10:21:28;;;;;;;0.50;0.50;;;28.80;45.10;;;;;;5036573;28;20032;-91
2022/06/29 10:23:58;;;;;;;0.50;0.50;;;28.80;45.60;;;;;;5036370;28;20033;-86
2022/06/29 10:26:31;;;;;;;0.50;0.50;;;28.70;45.80;;;;;;5017734;28;20053;-87
2022/06/29 10:29:22;;;;;;;0.50;0.50;;;28.60;45.30;;;;;;5033951;28;20028;-86
2022/06/29 10:31:51;;;;;;;0.40;0.40;;;28.50;45.20;;;;;;5020656;28;20029;-86
2022/06/29 10:34:37;;;;;;;0.60;0.60;;;28.50;44.90;;;;;;5034140;28;20037;-86
2022/06/29 10:37:03;;;;;;;0.50;0.50;;;28.40;45.00;;;;;;5033708;28;20052;-86
2022/06/29 10:39:44;;;;;;;0.45;0.45;;;28.40;44.40;;;;;;5033842;28;20056;-86
2022/06/29 10:45:11;;;;;;;0.50;0.50;;;28.50;44.60;;;;;;5051879;28;20116;-86
2022/06/29 10:47:36;;;;;;;0.50;0.50;;;28.50;44.20;;;;;;5034873;28;20120;-91
2022/06/29 10:50:19;;;;;;;0.60;0.60;;;28.60;44.30;;;;;;5036623;28;20370;-92
2022/06/29 10:52:45;;;;;;;0.50;0.50;;;28.70;44.40;;;;;;5054506;28;20087;-91
2022/06/29 10:55:11;;;;;;;0.50;0.50;;;28.80;44.50;;;;;;5036118;28;20518;-91
2022/06/29 10:57:39;;;;;;;0.55;0.55;;;29.10;43.70;;;;;;5003786;28;20032;-90
2022/06/29 11:00:09;;;;;;;0.50;0.50;;;29.20;44.00;;;;;;5053863;28;20025;-91
2022/06/29 11:02:36;;;;;;;0.52;0.52;;;29.30;43.70;;;;;;5036243;28;20048;-92
2022/06/29 11:05:02;;;;;;;0.85;0.50;;;29.60;43.70;;;;;;5036341;28;20486;-90
2022/06/29 11:12:58;;;;;;;1.13;0.85;;;29.60;40.40;;;;;;5054361;28;20078;-90
2022/06/29 11:15:41;;;;;;;0.95;0.40;;;29.70;41.40;;;;;;5036457;28;20036;-92
2022/06/29 11:18:08;;;;;;;1.00;0.70;;;29.80;41.00;;;;;;5036343;28;20025;-93
2022/06/29 11:20:34;;;;;;;0.60;0.60;;;30.00;41.10;;;;;;5036047;28;20071;-91
2022/06/29 11:23:00;;;;;;;0.60;0.60;;;30.10;39.90;;;;;;5003082;28;20040;-91
2022/06/29 11:25:26;;;;;;;2.05;0.50;;;30.10;39.60;;;;;;4991886;28;20033;-92
2022/06/29 11:27:52;;;;;;;0.65;0.65;;;30.30;40.10;;;;;;5015603;28;20489;-92
2022/06/29 11:30:22;;;;;;;0.60;0.60;;;30.40;40.30;;;;;;5016001;28;20845;-92
2022/06/29 11:32:49;;;;;;;0.68;0.60;;;30.50;40.50;;;;;;5017549;28;20032;-91
2022/06/29 11:35:17;;;;;;;0.40;0.40;;;30.60;40.00;;;;;;5035290;28;20025;-92
2022/06/29 11:37:51;;;;;;;0.77;0.77;;;30.60;39.20;;;;;;5025102;28;20025;-91
2022/06/29 11:40:29;;;;;;;0.60;0.60;;;30.50;38.50;;;;;;5025232;28;20102;-91
2022/06/29 11:43:09;;;;;;;0.40;0.40;;;30.40;38.10;;;;;;5053257;28;20017;-92
2022/06/29 11:45:46;;;;;;;0.43;0.43;;;30.40;39.40;;;;;;5051462;28;20016;-90
2022/06/29 11:48:15;;;;;;;0.65;0.60;;;30.50;38.70;;;;;;5054989;28;20044;-91
2022/06/29 11:50:42;;;;;;;0.52;0.52;;;30.60;39.20;;;;;;5050239;28;20024;-91
2022/06/29 11:53:08;;;;;;;0.70;0.70;;;30.80;39.50;;;;;;5035493;28;20339;-91
2022/06/29 11:55:45;;;;;;;0.45;0.45;;;31.00;38.80;;;;;;5039577;28;20028;-93
2022/06/29 11:58:15;;;;;;;1.85;0.52;;;31.20;39.30;;;;;;5069673;28;20070;-88
2022/06/29 12:00:43;;;;;;;0.55;0.55;;;31.40;39.30;;;;;;5032447;28;20423;-87
2022/06/29 12:03:12;;;;;;;0.70;0.70;;;31.50;38.10;;;;;;5032199;28;20086;-87
2022/06/29 12:05:52;;;;;;;1.05;0.40;;;31.50;37.90;;;;;;5016389;28;20116;-86
2022/06/29 12:08:18;;;;;;;0.90;0.82;;;31.50;37.80;;;;;;5034565;28;20048;-87
2022/06/29 12:10:44;;;;;;;0.50;0.50;;;31.50;36.40;;;;;;5000498;28;20025;-87
2022/06/29 12:13:09;;;;;;;1.20;0.73;;;31.50;37.10;;;;;;5016086;28;20111;-86
2022/06/29 12:15:36;;;;;;;0.50;0.50;;;31.70;37.70;;;;;;5016366;28;20102;-93
2022/06/29 12:18:01;;;;;;;2.15;0.38;;;31.90;37.30;;;;;;4998406;28;20148;-87
2022/06/29 12:20:27;;;;;;;0.50;0.50;;;32.00;37.70;;;;;;4998791;28;20568;-87
2022/06/29 12:22:53;;;;;;;0.40;0.40;;;32.20;37.00;;;;;;5003131;28;20106;-86
2022/06/29 12:25:22;;;;;;;0.50;0.50;;;32.10;35.60;;;;;;5008907;28;20550;-87
2022/06/29 12:27:48;;;;;;;0.65;0.40;;;31.90;35.30;;;;;;5003539;28;20083;-87
2022/06/29 12:30:14;;;;;;;0.50;0.50;;;31.60;36.40;;;;;;5029691;28;20078;-87
2022/06/29 12:32:39;;;;;;;0.60;0.45;;;31.50;36.80;;;;;;5024096;28;20055;-86
2022/06/29 12:35:06;;;;;;;0.50;0.50;;;31.70;37.50;;;;;;5020529;28;20130;-87
2022/06/29 12:37:32;;;;;;;2.40;0.85;;;32.00;37.70;;;;;;5036302;28;20036;-87
2022/06/29 12:39:57;;;;;;;0.95;0.77;;;32.20;36.70;;;;;;5054228;28;20068;-87
2022/06/29 12:42:23;;;;;;;0.60;0.60;;;32.00;37.00;;;;;;5004033;28;20102;-87
2022/06/29 12:44:49;;;;;;;0.60;0.60;;;31.70;37.20;;;;;;5036340;28;20040;-88
2022/06/29 12:47:15;;;;;;;0.80;0.80;;;31.60;36.80;;;;;;4999977;28;20515;-86
2022/06/29 12:49:41;;;;;;;1.23;0.63;;;31.70;36.80;;;;;;5019401;28;20040;-87
2022/06/29 12:52:07;;;;;;;0.43;0.43;;;31.80;37.00;;;;;;5002991;28;20041;-86
2022/06/29 12:54:32;;;;;;;0.70;0.60;;;32.10;37.00;;;;;;5021934;28;20025;-93
2022/06/29 12:56:58;;;;;;;0.50;0.50;;;32.30;37.10;;;;;;5004001;28;20128;-86
2022/06/29 12:59:24;;;;;;;0.57;0.57;;;32.40;37.30;;;;;;5032905;28;20388;-86
2022/06/29 13:01:51;;;;;;;0.80;0.50;;;32.20;37.10;;;;;;5002651;28;20033;-86
2022/06/29 13:04:19;;;;;;;0.60;0.60;;;32.00;37.20;;;;;;5003627;28;20040;-86
2022/06/29 13:06:45;;;;;;;0.60;0.60;;;31.90;37.60;;;;;;5035631;28;20022;-85
2022/06/29 13:09:11;;;;;;;0.52;0.52;;;31.70;36.80;;;;;;5019581;28;20499;-86
2022/06/29 13:11:37;;;;;;;0.73;0.57;;;31.50;37.70;;;;;;5032256;28;20060;-86
2022/06/29 13:14:02;;;;;;;0.60;0.60;;;31.30;38.10;;;;;;5019418;28;20051;-87
2022/06/29 13:16:28;;;;;;;2.17;0.73;;;31.30;38.20;;;;;;5035718;28;20463;-87